Time;durP1;ratioP1;P1;durP2;ratioP2;P2;SDS_P1;SDS_P2;PMS_P1;PMS_P2;Temp;Humidity;BMP_temperature;BMP_pressure;BME280_temperature;BME280_humidity;BME280_pressure;Samples;Min_cycle;Max_cycle;Signal;HPM_P1;HPM_P2
2022/04/29 00:02:14;;;;;;;;;25.50;24.00;;;;;16.93;45.43;102018.97;5009056;28;45950;-86
2022/04/29 00:04:42;;;;;;;;;26.25;24.00;;;;;17.22;45.18;102070.94;5004219;28;45965;-86
2022/04/29 00:07:09;;;;;;;;;23.75;22.25;;;;;17.27;45.20;102077.84;5003682;28;45586;-87
2022/04/29 00:09:34;;;;;;;;;22.75;20.50;;;;;17.18;45.40;102064.00;5004346;28;45559;-87
2022/04/29 00:12:02;;;;;;;;;26.75;24.00;;;;;17.06;45.36;102051.34;5006726;28;45416;-87
2022/04/29 00:14:28;;;;;;;;;26.50;26.50;;;;;17.17;45.54;102067.69;5006528;28;45337;-87
2022/04/29 00:16:54;;;;;;;;;24.50;24.50;;;;;17.21;45.46;102071.88;5005322;28;45454;-87
2022/04/29 00:19:19;;;;;;;;;24.00;22.75;;;;;17.12;45.66;102061.69;5003576;28;45931;-88
2022/04/29 00:21:45;;;;;;;;;25.25;23.75;;;;;16.95;46.01;102035.84;5007344;28;46107;-86
2022/04/29 00:24:11;;;;;;;;;24.75;22.50;;;;;16.98;45.85;102040.16;5005368;28;45756;-88
2022/04/29 00:26:40;;;;;;;;;27.75;25.25;;;;;17.11;45.99;102059.97;5005496;28;45619;-88
2022/04/29 00:29:07;;;;;;;;;28.50;25.25;;;;;16.93;45.74;102024.34;5008900;28;45303;-88
2022/04/29 00:31:33;;;;;;;;;28.00;24.50;;;;;17.02;46.19;102058.72;5001970;28;45506;-87
2022/04/29 00:33:59;;;;;;;;;24.25;22.25;;;;;16.98;46.08;102045.53;5004410;28;45443;-88
2022/04/29 00:36:25;;;;;;;;;24.75;24.25;;;;;16.88;46.05;102041.72;5006131;28;45543;-88
2022/04/29 00:38:51;;;;;;;;;28.25;27.50;;;;;16.85;46.49;102048.13;5006837;28;45833;-87
2022/04/29 00:41:24;;;;;;;;;28.75;26.75;;;;;16.79;46.83;102038.63;5006875;28;46183;-88
2022/04/29 00:44:04;;;;;;;;;25.75;24.50;;;;;16.75;46.96;102030.81;5005901;28;45404;-88
2022/04/29 00:46:39;;;;;;;;;30.75;28.25;;;;;16.70;47.00;102024.84;5000954;28;45464;-87
2022/04/29 00:49:07;;;;;;;;;30.00;27.50;;;;;16.75;46.79;102036.19;5002828;28;45448;-88
2022/04/29 00:51:33;;;;;;;;;28.75;26.50;;;;;16.71;47.00;102031.94;5001550;28;46011;-88
2022/04/29 00:54:00;;;;;;;;;29.75;29.00;;;;;16.58;47.22;102015.72;4981287;28;45504;-87
2022/04/29 00:56:29;;;;;;;;;30.25;27.50;;;;;16.64;47.34;102020.69;5002540;28;45315;-87
2022/04/29 00:59:09;;;;;;;;;26.50;26.00;;;;;16.48;47.21;102001.97;5008088;28;45507;-88
2022/04/29 01:01:36;;;;;;;;;28.50;27.00;;;;;16.58;47.50;102021.09;5003640;28;46995;-88
2022/04/29 01:04:03;;;;;;;;;33.25;25.50;;;;;16.57;47.46;102017.53;5001846;28;45344;-87
2022/04/29 01:06:28;;;;;;;;;26.50;26.00;;;;;16.26;47.33;101961.22;5004589;28;45585;-88
2022/04/29 01:08:53;;;;;;;;;31.25;28.75;;;;;16.44;47.23;101995.03;5002061;28;45560;-87
2022/04/29 01:11:26;;;;;;;;;31.75;29.25;;;;;16.53;47.27;102007.94;5005725;28;45888;-88
2022/04/29 01:13:52;;;;;;;;;28.75;27.25;;;;;16.55;47.53;102018.59;5001185;28;47210;-87
2022/04/29 01:16:19;;;;;;;;;30.25;28.25;;;;;16.52;47.56;102006.19;4990763;28;45460;-87
2022/04/29 01:18:51;;;;;;;;;30.50;27.50;;;;;16.38;47.63;101992.75;4994444;28;46179;-87
2022/04/29 01:21:17;;;;;;;;;30.00;29.00;;;;;16.47;47.72;102013.66;4993880;28;45406;-87
2022/04/29 01:23:43;;;;;;;;;22.75;21.50;;;;;16.49;47.80;102014.44;4993782;28;46465;-89
2022/04/29 01:26:10;;;;;;;;;32.50;27.25;;;;;16.31;47.71;101991.38;4998879;28;45443;-89
2022/04/29 01:28:36;;;;;;;;;30.25;28.25;;;;;16.45;47.84;102006.66;5001275;28;45486;-88
2022/04/29 01:31:03;;;;;;;;;31.75;29.50;;;;;16.19;47.92;101980.41;4996355;28;46718;-88
2022/04/29 01:33:30;;;;;;;;;24.00;24.00;;;;;16.34;48.14;102002.78;4997387;28;45350;-88
2022/04/29 01:35:55;;;;;;;;;31.25;28.50;;;;;16.31;48.24;101996.75;5018373;28;45393;-89
2022/04/29 01:38:22;;;;;;;;;30.25;28.25;;;;;16.25;48.11;102000.66;5005642;28;45302;-88
2022/04/29 01:40:47;;;;;;;;;26.75;25.25;;;;;16.04;48.58;101967.88;5002684;28;45350;-89
2022/04/29 01:43:12;;;;;;;;;29.50;29.25;;;;;16.10;48.26;101986.31;5000099;28;45353;-88
2022/04/29 01:45:38;;;;;;;;;30.00;28.25;;;;;16.05;48.61;101977.69;5000782;28;47263;-88
2022/04/29 01:48:04;;;;;;;;;32.75;29.75;;;;;16.17;48.62;101990.38;5002876;28;44873;-88
2022/04/29 01:50:29;;;;;;;;;31.50;30.50;;;;;16.16;48.34;102002.09;5001580;28;45437;-87
2022/04/29 01:52:54;;;;;;;;;32.75;30.50;;;;;15.88;48.52;101951.81;5003908;28;45471;-90
2022/04/29 01:55:20;;;;;;;;;33.00;31.00;;;;;15.96;48.43;101972.84;4992321;28;45397;-89
2022/04/29 01:57:49;;;;;;;;;36.50;31.25;;;;;16.11;48.42;102000.63;5015663;28;45249;-89
2022/04/29 02:00:14;;;;;;;;;31.25;29.75;;;;;15.99;48.53;101975.34;4994515;28;47416;-89
2022/04/29 02:02:40;;;;;;;;;34.25;30.00;;;;;16.02;48.82;101988.63;4995295;28;45367;-88
2022/04/29 02:05:05;;;;;;;;;31.75;26.75;;;;;15.89;48.54;101975.03;4998967;28;47331;-88
2022/04/29 02:07:31;;;;;;;;;26.50;26.50;;;;;15.98;48.46;101990.59;5001773;28;45447;-89
2022/04/29 02:09:56;;;;;;;;;30.75;29.00;;;;;15.82;48.39;101954.00;5003388;28;47013;-88
2022/04/29 02:12:22;;;;;;;;;30.25;27.50;;;;;15.88;48.82;101977.81;5000806;28;45495;-90
2022/04/29 02:14:48;;;;;;;;;32.50;30.50;;;;;15.88;48.45;101977.81;4998517;28;46330;-89
2022/04/29 02:17:13;;;;;;;;;29.50;28.00;;;;;15.98;48.41;102003.16;5001942;28;45667;-89
2022/04/29 02:19:39;;;;;;;;;27.25;27.25;;;;;15.83;48.39;101987.97;4997376;28;45845;-88
2022/04/29 02:22:06;;;;;;;;;31.00;30.00;;;;;15.89;48.80;102009.06;5002284;28;45357;-89
2022/04/29 02:24:34;;;;;;;;;31.75;27.25;;;;;15.89;48.71;102017.13;5002855;28;45372;-88
2022/04/29 02:27:00;;;;;;;;;31.75;30.25;;;;;15.88;48.91;102020.78;5001664;28;45466;-89
2022/04/29 02:29:29;;;;;;;;;29.00;29.00;;;;;15.87;49.00;102033.31;4980961;28;47146;-88
2022/04/29 02:31:55;;;;;;;;;32.25;28.50;;;;;15.84;49.09;102030.81;5003003;28;45512;-89
2022/04/29 02:34:21;;;;;;;;;29.75;27.50;;;;;15.82;49.16;102034.53;4998033;28;46547;-89
2022/04/29 02:36:47;;;;;;;;;34.75;29.75;;;;;15.83;48.97;102026.41;4999570;28;45511;-89
2022/04/29 02:39:13;;;;;;;;;30.50;30.00;;;;;15.82;49.18;102021.13;5004990;28;45794;-88
2022/04/29 02:41:38;;;;;;;;;32.25;28.50;;;;;15.52;49.30;101984.31;5001059;28;45335;-89
2022/04/29 02:44:04;;;;;;;;;32.00;29.50;;;;;15.68;49.26;101997.72;5002007;28;45827;-89
2022/04/29 02:46:29;;;;;;;;;32.75;29.50;;;;;15.63;49.48;102002.47;4999241;28;45664;-87
2022/04/29 02:48:54;;;;;;;;;32.00;30.00;;;;;14.98;49.42;101901.47;4999696;28;46138;-88
2022/04/29 02:51:20;;;;;;;;;32.25;30.00;;;;;15.73;49.48;102034.13;5000468;28;45477;-89
2022/04/29 02:53:45;;;;;;;;;33.50;30.75;;;;;15.54;49.40;102002.06;4998041;28;45637;-88
2022/04/29 02:56:11;;;;;;;;;34.50;29.00;;;;;15.29;49.62;101966.81;4992448;28;45511;-89
2022/04/29 02:58:36;;;;;;;;;32.00;30.00;;;;;15.58;49.39;102021.53;4987849;28;46513;-88
2022/04/29 03:01:02;;;;;;;;;37.00;33.75;;;;;15.52;49.32;102009.34;4990251;28;45428;-89
2022/04/29 03:03:28;;;;;;;;;28.00;28.00;;;;;15.63;49.61;102027.50;4986897;28;45606;-88
2022/04/29 03:05:54;;;;;;;;;32.50;29.00;;;;;15.55;49.55;102024.41;4994386;28;45408;-88
2022/04/29 03:08:19;;;;;;;;;34.67;30.67;;;;;15.48;49.66;102012.28;4990945;28;46960;-88
2022/04/29 03:10:46;;;;;;;;;31.50;29.50;;;;;15.45;49.52;102020.50;4992825;28;45438;-88
2022/04/29 03:13:12;;;;;;;;;37.25;31.50;;;;;15.52;49.86;102032.63;4991653;28;45597;-88
2022/04/29 03:15:37;;;;;;;;;36.25;31.25;;;;;15.37;49.98;102014.69;4991926;28;45552;-88
2022/04/29 03:18:18;;;;;;;;;42.75;33.00;;;;;15.37;50.13;102007.53;4990298;28;46459;-89
2022/04/29 03:20:44;;;;;;;;;36.50;31.50;;;;;15.47;50.15;102024.84;4993863;28;45637;-88
2022/04/29 03:23:11;;;;;;;;;29.75;28.00;;;;;15.31;49.97;101997.97;4997815;28;45459;-90
2022/04/29 03:25:37;;;;;;;;;36.50;32.00;;;;;15.35;50.26;102004.06;4995795;28;45621;-92
2022/04/29 03:28:05;;;;;;;;;38.00;32.25;;;;;15.44;49.97;102010.69;4994048;28;45972;-91
2022/04/29 03:30:30;;;;;;;;;36.00;32.50;;;;;15.38;50.15;102011.94;4996856;28;45495;-91
2022/04/29 03:32:58;;;;;;;;;41.25;33.75;;;;;15.40;50.10;102009.16;4997216;28;45536;-91
2022/04/29 03:35:24;;;;;;;;;41.00;33.75;;;;;15.31;50.11;101999.81;4995463;28;45457;-91
2022/04/29 03:37:51;;;;;;;;;37.25;31.75;;;;;15.30;49.96;102000.78;5012211;28;47267;-91
2022/04/29 03:40:24;;;;;;;;;33.75;31.00;;;;;15.22;50.19;101985.06;4995910;28;45578;-91
2022/04/29 03:42:55;;;;;;;;;32.25;30.25;;;;;15.25;50.50;101994.75;4995132;28;45893;-92
2022/04/29 03:45:23;;;;;;;;;39.00;33.75;;;;;15.26;50.36;102007.25;4996077;28;45472;-92
2022/04/29 03:47:48;;;;;;;;;37.00;31.00;;;;;15.02;50.39;101966.56;4996005;28;46494;-91
2022/04/29 03:50:13;;;;;;;;;30.75;29.50;;;;;14.90;50.19;101941.28;4996985;28;45521;-91
2022/04/29 03:52:51;;;;;;;;;40.25;34.50;;;;;15.23;50.68;101986.81;4997904;28;45457;-92
2022/04/29 03:55:21;;;;;;;;;30.75;30.00;;;;;15.27;50.48;101995.56;4995996;28;45536;-92
2022/04/29 03:57:47;;;;;;;;;38.00;33.25;;;;;15.22;50.51;101992.25;4992718;28;46179;-91
2022/04/29 04:00:14;;;;;;;;;38.75;33.00;;;;;15.06;50.46;101963.63;4994294;28;45470;-92
2022/04/29 04:02:39;;;;;;;;;32.25;30.00;;;;;14.96;50.46;101946.31;4998211;28;46071;-93
2022/04/29 04:05:06;;;;;;;;;37.25;32.25;;;;;15.15;50.70;101986.38;4994650;28;45568;-92
2022/04/29 04:07:31;;;;;;;;;36.00;32.25;;;;;14.93;50.79;101954.50;4995963;28;48059;-91
2022/04/29 04:09:57;;;;;;;;;37.75;31.75;;;;;15.01;50.86;101967.50;4994708;28;45452;-92
2022/04/29 04:12:22;;;;;;;;;35.50;32.25;;;;;15.04;50.55;101967.34;4996017;28;45390;-91
2022/04/29 04:14:47;;;;;;;;;35.25;32.00;;;;;14.84;50.84;101938.91;4996138;28;45592;-92
2022/04/29 04:17:13;;;;;;;;;38.25;32.75;;;;;15.06;50.86;101979.72;4996221;28;53374;-91
2022/04/29 04:19:38;;;;;;;;;39.50;35.25;;;;;15.07;50.86;101980.56;4999161;28;45480;-91
2022/04/29 04:22:04;;;;;;;;;36.75;30.25;;;;;15.08;50.69;101982.28;5011346;28;45918;-91
2022/04/29 04:24:29;;;;;;;;;40.75;33.25;;;;;15.03;51.24;101982.56;5013378;28;45410;-89
2022/04/29 04:26:55;;;;;;;;;30.75;30.00;;;;;15.03;50.85;101981.69;5011220;28;45270;-92
2022/04/29 04:29:20;;;;;;;;;36.50;32.75;;;;;14.88;50.71;101953.91;5003680;28;45488;-94
2022/04/29 04:31:47;;;;;;;;;36.75;32.75;;;;;14.97;50.87;101982.03;4999533;28;45471;-92
2022/04/29 04:36:57;;;;;;;;;43.00;33.75;;;;;14.86;50.76;101950.44;4997461;28;50308;-93
2022/04/29 04:39:22;;;;;;;;;42.25;34.00;;;;;14.82;50.66;101946.22;4997856;28;45906;-93
2022/04/29 04:41:48;;;;;;;;;32.75;31.25;;;;;15.00;51.13;101980.03;4997692;28;45376;-92
2022/04/29 04:44:14;;;;;;;;;38.25;33.50;;;;;14.80;51.39;101962.38;4998097;28;45575;-92
2022/04/29 04:46:40;;;;;;;;;35.50;33.00;;;;;14.97;51.06;101990.94;4998591;28;45495;-92
2022/04/29 04:49:05;;;;;;;;;33.00;30.75;;;;;14.77;51.19;101958.97;4999261;28;47601;-92
2022/04/29 04:51:31;;;;;;;;;39.00;33.75;;;;;14.81;51.01;101972.13;4998280;28;45530;-92
2022/04/29 04:53:56;;;;;;;;;43.50;33.75;;;;;14.80;51.17;101981.13;4997957;28;45623;-92
2022/04/29 04:56:22;;;;;;;;;37.00;33.00;;;;;14.71;51.30;101970.91;4999133;28;46081;-91
2022/04/29 04:58:47;;;;;;;;;37.50;32.50;;;;;14.48;51.82;101940.81;4993816;28;45894;-93
2022/04/29 05:01:12;;;;;;;;;32.25;31.25;;;;;14.82;51.61;101997.13;4995873;28;45276;-92
2022/04/29 05:03:38;;;;;;;;;36.75;32.00;;;;;14.81;51.28;102001.63;4989215;28;45393;-92
2022/04/29 05:06:03;;;;;;;;;42.75;33.25;;;;;14.80;51.53;102007.94;4996784;28;48839;-93
2022/04/29 05:08:28;;;;;;;;;37.75;34.00;;;;;14.75;51.42;102003.78;4995140;28;45452;-93
2022/04/29 05:10:54;;;;;;;;;37.50;33.00;;;;;14.77;51.22;102009.91;4996432;28;45875;-92
2022/04/29 05:13:19;;;;;;;;;37.25;32.25;;;;;14.56;51.44;101972.59;4993983;28;46688;-93
2022/04/29 05:15:44;;;;;;;;;38.75;31.50;;;;;14.59;51.58;101979.59;4994687;28;48092;-91
2022/04/29 05:18:10;;;;;;;;;33.25;31.00;;;;;14.70;51.29;102004.03;4993126;28;47885;-92
2022/04/29 05:20:35;;;;;;;;;34.50;32.25;;;;;14.75;51.57;102006.47;4984934;28;45528;-92
2022/04/29 05:23:01;;;;;;;;;36.00;33.00;;;;;14.66;51.57;101995.25;5011971;28;45431;-93
2022/04/29 05:25:26;;;;;;;;;36.50;32.50;;;;;14.74;51.56;102010.94;5000579;28;46023;-93
2022/04/29 05:27:52;;;;;;;;;39.00;32.75;;;;;14.64;51.63;101980.22;4998021;28;45341;-93
2022/04/29 05:30:17;;;;;;;;;40.00;35.00;;;;;14.76;51.44;102011.72;4995947;28;58261;-92
2022/04/29 05:32:42;;;;;;;;;35.50;31.50;;;;;14.77;51.43;102010.78;4996690;28;45408;-92
2022/04/29 05:35:09;;;;;;;;;31.00;31.00;;;;;14.77;51.53;102007.22;4984397;28;46087;-92
2022/04/29 05:37:36;;;;;;;;;43.50;33.00;;;;;14.79;51.50;102014.25;5011209;28;45412;-92
2022/04/29 05:42:46;;;;;;;;;31.25;29.75;;;;;14.61;51.12;101994.66;5000130;28;45321;-91
2022/04/29 05:45:12;;;;;;;;;33.50;30.75;;;;;14.51;51.45;101973.75;4996898;28;46072;-92
2022/04/29 05:47:37;;;;;;;;;37.50;32.75;;;;;14.67;51.33;102005.06;5000354;28;45481;-92
2022/04/29 05:50:03;;;;;;;;;31.00;29.00;;;;;14.69;51.42;102011.16;4984177;28;45419;-93
2022/04/29 05:52:29;;;;;;;;;32.25;30.00;;;;;14.61;51.27;101991.09;4996904;28;50220;-93
2022/04/29 05:54:54;;;;;;;;;38.50;32.00;;;;;14.81;51.50;102025.75;4997154;28;45425;-93
2022/04/29 05:57:20;;;;;;;;;36.00;28.25;;;;;14.83;51.31;102017.63;4996913;28;51785;-92
2022/04/29 05:59:45;;;;;;;;;33.25;30.00;;;;;14.84;51.43;102028.28;4995484;28;45321;-93
2022/04/29 06:02:10;;;;;;;;;32.75;29.50;;;;;14.85;51.03;102032.69;4984355;28;45576;-91
2022/04/29 06:04:36;;;;;;;;;35.50;30.00;;;;;14.75;51.18;102020.72;4995688;28;46031;-92
2022/04/29 06:07:01;;;;;;;;;34.50;30.00;;;;;14.88;51.05;102045.91;4993776;28;45469;-92
2022/04/29 06:09:26;;;;;;;;;36.25;30.50;;;;;14.84;50.97;102048.84;4995853;28;45681;-92
2022/04/29 06:11:52;;;;;;;;;28.00;27.25;;;;;14.84;51.29;102043.47;4994099;28;51936;-92
2022/04/29 06:14:17;;;;;;;;;28.50;28.25;;;;;14.84;51.05;102052.41;4998862;28;47029;-92
2022/04/29 06:16:44;;;;;;;;;31.75;29.75;;;;;14.78;51.23;102050.03;4999592;28;48920;-93
2022/04/29 06:19:09;;;;;;;;;29.00;27.75;;;;;14.81;50.96;102055.22;5000317;28;45424;-92
2022/04/29 06:21:36;;;;;;;;;34.75;31.50;;;;;14.78;51.42;102043.81;4984987;28;45365;-93
2022/04/29 06:24:01;;;;;;;;;34.00;31.50;;;;;14.82;51.11;102048.94;4983301;28;45366;-92
2022/04/29 06:26:26;;;;;;;;;30.50;28.00;;;;;14.84;50.93;102052.41;4995813;28;45413;-92
2022/04/29 06:28:52;;;;;;;;;35.75;30.75;;;;;14.75;51.25;102042.16;5001082;28;45501;-92
2022/04/29 06:31:17;;;;;;;;;28.50;28.00;;;;;14.72;51.24;102031.63;4996708;28;61641;-91
2022/04/29 06:33:42;;;;;;;;;31.00;27.50;;;;;14.76;51.09;102043.88;4984731;28;47274;-91
2022/04/29 06:36:09;;;;;;;;;33.25;29.50;;;;;14.73;50.90;102029.78;4981901;28;45271;-92
2022/04/29 06:38:34;;;;;;;;;32.25;28.75;;;;;14.77;50.80;102032.25;5028201;28;45261;-92
2022/04/29 06:41:00;;;;;;;;;34.00;30.75;;;;;14.85;51.10;102061.31;5010205;28;45324;-92
2022/04/29 06:43:28;;;;;;;;;32.25;30.00;;;;;14.94;51.09;102068.00;5002600;28;46580;-92
2022/04/29 06:45:53;;;;;;;;;32.50;30.00;;;;;14.92;51.03;102065.41;4997782;28;45280;-93
2022/04/29 06:48:18;;;;;;;;;33.25;30.25;;;;;14.88;50.72;102062.00;4995713;28;45338;-91
2022/04/29 06:50:44;;;;;;;;;35.75;31.25;;;;;14.86;50.92;102055.88;4996209;28;45364;-92
2022/04/29 06:53:09;;;;;;;;;32.75;30.00;;;;;14.95;50.82;102067.91;4996684;28;45485;-92
2022/04/29 06:55:39;;;;;;;;;34.75;29.75;;;;;14.91;50.79;102061.88;4999995;28;45290;-91
2022/04/29 06:58:05;;;;;;;;;37.00;32.25;;;;;14.76;51.06;102045.72;4999727;28;49835;-90
2022/04/29 07:00:31;;;;;;;;;37.00;31.75;;;;;15.01;50.63;102074.75;4999836;28;45586;-91
2022/04/29 07:02:57;;;;;;;;;28.00;26.00;;;;;15.01;50.80;102066.72;4998857;28;46680;-93
2022/04/29 07:05:23;;;;;;;;;32.25;28.25;;;;;14.99;50.81;102068.63;4999696;28;46023;-92
2022/04/29 07:07:52;;;;;;;;;37.25;31.75;;;;;14.82;50.65;102035.53;5000566;28;45366;-92
2022/04/29 07:10:17;;;;;;;;;34.00;29.50;;;;;14.93;50.85;102052.84;5007827;28;45416;-92
2022/04/29 07:12:44;;;;;;;;;34.50;32.25;;;;;15.02;50.90;102061.28;4999681;28;45483;-93
2022/04/29 07:15:12;;;;;;;;;37.75;30.75;;;;;14.64;51.27;102002.50;4998077;28;45361;-91
2022/04/29 07:17:38;;;;;;;;;37.00;31.50;;;;;14.85;51.08;102040.72;4983359;28;45342;-92
2022/04/29 07:20:05;;;;;;;;;36.25;32.50;;;;;14.85;51.24;102034.50;4998616;28;45532;-91
2022/04/29 07:22:31;;;;;;;;;40.50;33.25;;;;;15.03;50.90;102060.34;4998879;28;46480;-91
2022/04/29 07:24:56;;;;;;;;;38.75;33.25;;;;;15.03;51.02;102067.50;4998522;28;45539;-92
2022/04/29 07:27:21;;;;;;;;;30.00;29.25;;;;;14.90;51.17;102052.06;4997226;28;45301;-93
2022/04/29 07:29:47;;;;;;;;;41.00;33.00;;;;;14.98;51.34;102059.69;4999389;28;45392;-93
2022/04/29 07:32:13;;;;;;;;;34.50;30.25;;;;;15.01;51.05;102064.91;4998457;28;46615;-93
2022/04/29 07:42:50;;;;;;;;;36.50;31.50;;;;;15.14;51.01;102083.88;4990622;28;45585;-93
2022/04/29 07:45:15;;;;;;;;;38.75;32.00;;;;;15.02;51.74;102063.09;4997993;28;49690;-92
2022/04/29 07:47:41;;;;;;;;;41.75;33.00;;;;;14.94;52.28;102051.94;4998326;28;45452;-93
2022/04/29 07:50:06;;;;;;;;;40.25;34.50;;;;;14.80;52.58;102021.34;4999832;28;45604;-93
2022/04/29 07:52:33;;;;;;;;;43.25;35.00;;;;;15.08;52.34;102079.72;4998290;28;46111;-91
2022/04/29 07:54:59;;;;;;;;;35.25;32.25;;;;;15.00;52.43;102063.16;4997944;28;45382;-92
2022/04/29 07:57:25;;;;;;;;;37.25;33.00;;;;;15.07;52.79;102087.84;4997964;28;45388;-92
2022/04/29 07:59:50;;;;;;;;;41.00;36.75;;;;;14.85;52.61;102058.63;4998226;28;45460;-91
2022/04/29 08:02:15;;;;;;;;;44.25;37.25;;;;;14.98;52.79;102081.16;4996461;28;47417;-92
2022/04/29 08:04:41;;;;;;;;;42.25;35.75;;;;;14.95;52.44;102075.09;4995062;28;45480;-90
2022/04/29 08:07:06;;;;;;;;;42.25;36.75;;;;;15.03;52.32;102078.22;4997269;28;45537;-91
2022/04/29 08:09:32;;;;;;;;;47.00;37.75;;;;;15.12;52.06;102073.22;4995926;28;45413;-91
2022/04/29 08:11:57;;;;;;;;;42.75;34.50;;;;;15.09;52.09;102064.50;4996913;28;48706;-91
2022/04/29 08:14:22;;;;;;;;;45.00;35.00;;;;;15.00;52.40;102059.63;4995506;28;46082;-89
2022/04/29 08:16:49;;;;;;;;;36.75;32.25;;;;;15.11;52.72;102082.25;4996892;28;45395;-90
2022/04/29 08:19:14;;;;;;;;;40.75;34.75;;;;;15.07;52.57;102083.34;4996661;28;45532;-88
2022/04/29 08:21:39;;;;;;;;;38.75;34.50;;;;;15.18;52.34;102089.97;4996535;28;45413;-89
2022/04/29 08:24:05;;;;;;;;;49.75;39.00;;;;;15.15;52.09;102079.38;4995058;28;47369;-89
2022/04/29 08:26:30;;;;;;;;;43.50;36.75;;;;;15.32;52.08;102095.44;4995232;28;45501;-88
2022/04/29 08:28:56;;;;;;;;;56.00;45.25;;;;;15.29;52.48;102100.97;4998330;28;45297;-88
2022/04/29 08:31:22;;;;;;;;;50.50;39.75;;;;;15.31;52.34;102093.72;4996266;28;45508;-88
2022/04/29 08:33:48;;;;;;;;;47.00;39.50;;;;;15.32;52.19;102087.38;4996693;28;45528;-89
2022/04/29 08:36:15;;;;;;;;;46.50;38.75;;;;;15.14;52.23;102051.69;5007590;28;45433;-88
2022/04/29 08:38:41;;;;;;;;;47.50;38.00;;;;;15.46;52.23;102105.41;4994148;28;45511;-89
2022/04/29 08:41:08;;;;;;;;;46.75;38.50;;;;;15.42;52.44;102096.69;4995431;28;46085;-88
2022/04/29 08:43:34;;;;;;;;;44.00;37.50;;;;;15.50;52.46;102105.16;4996006;28;45507;-88
2022/04/29 08:46:01;;;;;;;;;43.50;36.25;;;;;15.54;52.20;102105.88;4993473;28;45437;-88
2022/04/29 08:48:30;;;;;;;;;45.75;38.00;;;;;15.53;51.97;102088.03;4994059;28;45508;-88
2022/04/29 08:50:57;;;;;;;;;45.50;36.75;;;;;15.52;51.81;102083.63;4981765;28;47082;-88
2022/04/29 08:53:23;;;;;;;;;44.75;37.75;;;;;15.69;51.72;102098.78;4990290;28;45577;-88
2022/04/29 08:58:39;;;;;;;;;49.75;39.75;;;;;15.83;51.52;102098.06;4988491;28;45448;-89
2022/04/29 09:01:10;;;;;;;;;43.00;35.75;;;;;15.88;51.48;102095.97;4991091;28;46170;-89
2022/04/29 09:03:37;;;;;;;;;60.50;46.00;;;;;15.87;51.78;102092.41;4987104;28;45405;-88
2022/04/29 09:06:04;;;;;;;;;66.67;52.67;;;;;15.94;51.56;102099.16;4986744;28;45486;-88
2022/04/29 09:08:38;;;;;;;;;45.25;38.75;;;;;16.12;51.75;102101.75;4999577;28;45425;-88
2022/04/29 09:11:05;;;;;;;;;45.75;37.75;;;;;15.96;51.03;102059.66;4999942;28;46395;-89
2022/04/29 09:13:32;;;;;;;;;46.75;37.75;;;;;16.31;51.25;102097.06;5000314;28;45278;-88
2022/04/29 09:16:10;;;;;;;;;46.50;39.50;;;;;16.50;50.76;102098.63;5001045;28;45381;-88
2022/04/29 09:18:42;;;;;;;;;51.00;40.00;;;;;16.44;50.48;102081.06;5001910;28;45542;-89
2022/04/29 09:21:27;;;;;;;;;47.25;39.00;;;;;16.54;50.16;102081.38;5004217;28;47577;-89
2022/04/29 09:23:59;;;;;;;;;44.25;36.75;;;;;16.46;50.18;102063.00;4995298;28;45349;-88
2022/04/29 09:26:30;;;;;;;;;49.75;40.75;;;;;16.66;50.19;102101.28;5008242;28;44748;-89
2022/04/29 09:29:10;;;;;;;;;45.00;38.00;;;;;16.73;50.17;102094.56;5005045;28;45380;-89
2022/04/29 09:31:54;;;;;;;;;46.50;38.50;;;;;16.83;49.99;102103.84;5009627;28;45315;-89
2022/04/29 09:34:24;;;;;;;;;46.50;34.75;;;;;16.87;50.08;102083.03;5006598;28;45347;-89
2022/04/29 09:36:50;;;;;;;;;47.00;39.50;;;;;17.04;49.42;102094.47;4991315;28;45453;-89
2022/04/29 09:39:27;;;;;;;;;44.75;38.50;;;;;17.09;49.23;102090.63;4992018;28;45334;-89
2022/04/29 09:41:57;;;;;;;;;47.25;38.25;;;;;17.16;49.34;102086.59;4992535;28;45476;-88
2022/04/29 09:44:30;;;;;;;;;49.25;39.25;;;;;17.22;49.41;102079.03;4995099;28;45786;-89
2022/04/29 09:47:08;;;;;;;;;47.25;39.50;;;;;17.21;49.43;102044.97;4989177;28;45462;-89
2022/04/29 09:49:33;;;;;;;;;48.25;39.00;;;;;17.48;48.66;102062.16;4995166;28;45594;-89
2022/04/29 09:51:59;;;;;;;;;45.50;38.25;;;;;17.46;48.76;102043.41;4994393;28;45563;-89
2022/04/29 09:54:29;;;;;;;;;48.75;39.25;;;;;17.70;48.58;102061.63;5009427;28;45490;-89
2022/04/29 09:57:15;;;;;;;;;49.25;39.50;;;;;17.67;48.31;102066.25;4992829;28;45567;-90
2022/04/29 09:59:46;;;;;;;;;45.00;39.00;;;;;17.85;48.13;102066.94;4990579;28;45494;-89
2022/04/29 10:02:14;;;;;;;;;39.75;36.75;;;;;17.92;47.73;102067.41;4992822;28;45427;-89
2022/04/29 10:04:43;;;;;;;;;43.75;36.00;;;;;18.12;47.25;102076.84;4994354;28;45389;-90
2022/04/29 10:07:10;;;;;;;;;41.75;36.75;;;;;18.18;46.55;102073.72;4995157;28;45590;-90
2022/04/29 10:09:38;;;;;;;;;42.75;37.25;;;;;18.25;46.80;102069.66;4995647;28;45572;-90
2022/04/29 10:12:10;;;;;;;;;38.50;34.00;;;;;18.24;46.28;102072.47;4994816;28;45329;-91
2022/04/29 10:14:37;;;;;;;;;42.25;37.75;;;;;18.18;46.90;102054.84;4995282;28;45294;-90
2022/04/29 10:22:50;;;;;;;;;44.75;36.50;;;;;18.27;46.94;102072.25;4933720;28;45542;-95
2022/04/29 10:25:18;;;;;;;;;37.50;34.75;;;;;18.14;47.06;102047.97;4928404;28;45419;-96
2022/04/29 10:27:44;;;;;;;;;45.00;37.50;;;;;18.19;46.44;102062.00;4922060;28;45301;-93
2022/04/29 10:30:10;;;;;;;;;37.25;35.50;;;;;18.22;45.76;102063.63;4914953;28;45439;-90
2022/04/29 10:33:06;;;;;;;;;42.50;35.75;;;;;18.38;45.88;102068.84;4914588;28;48064;-91
2022/04/29 10:35:43;;;;;;;;;41.00;35.25;;;;;18.46;45.93;102066.47;4913993;28;45636;-90
2022/04/29 10:38:12;;;;;;;;;37.50;32.00;;;;;18.55;45.80;102075.78;4911238;28;45416;-91
2022/04/29 10:40:37;;;;;;;;;33.25;30.75;;;;;18.60;45.94;102063.72;4914595;28;45710;-90
2022/04/29 10:43:07;;;;;;;;;38.00;32.25;;;;;18.70;45.36;102063.94;4913264;28;46218;-90
2022/04/29 10:45:33;;;;;;;;;37.75;32.00;;;;;18.72;44.70;102052.06;4913562;28;45517;-90
2022/04/29 10:47:58;;;;;;;;;38.00;33.25;;;;;18.74;44.29;102054.66;4913966;28;45393;-91
2022/04/29 10:50:29;;;;;;;;;33.75;31.00;;;;;18.86;44.20;102051.13;4914047;28;45450;-91
2022/04/29 10:53:05;;;;;;;;;32.25;31.00;;;;;18.94;43.89;102054.16;4912999;28;45508;-92
2022/04/29 10:55:31;;;;;;;;;35.50;30.25;;;;;18.96;44.06;102047.78;4913826;28;45541;-91
2022/04/29 10:58:01;;;;;;;;;31.75;29.00;;;;;19.10;43.69;102045.84;4993343;28;45352;-91
2022/04/29 11:00:28;;;;;;;;;45.00;38.50;;;;;19.29;43.31;102047.19;4994274;28;45370;-89
2022/04/29 11:02:53;;;;;;;;;30.50;28.00;;;;;19.50;42.91;102050.19;4993661;28;46483;-89
2022/04/29 11:05:36;;;;;;;;;30.25;27.50;;;;;19.67;43.11;102052.50;4993720;28;45392;-91
2022/04/29 11:08:09;;;;;;;;;33.25;28.50;;;;;19.61;42.52;102031.38;4993969;28;45295;-90
2022/04/29 11:10:58;;;;;;;;;34.50;30.75;;;;;19.66;41.70;102045.38;4993324;28;45549;-91
2022/04/29 11:13:26;;;;;;;;;30.00;28.75;;;;;19.70;41.80;102048.75;4993322;28;45658;-90
2022/04/29 11:15:51;;;;;;;;;33.00;30.00;;;;;19.46;41.84;102008.16;4995265;28;45417;-88
2022/04/29 11:18:25;;;;;;;;;34.50;30.50;;;;;19.79;41.13;102050.78;5005002;28;45559;-90
2022/04/29 11:20:59;;;;;;;;;28.25;25.75;;;;;19.94;41.54;102049.66;4993206;28;45494;-89
2022/04/29 11:26:14;;;;;;;;;30.00;28.50;;;;;20.40;40.62;102035.34;4994906;28;45376;-89
2022/04/29 11:28:40;;;;;;;;;27.00;25.75;;;;;20.52;40.24;102027.25;4994594;28;45313;-89
2022/04/29 11:31:08;;;;;;;;;28.75;24.50;;;;;20.71;40.03;102029.38;4994192;28;45485;-90
2022/04/29 11:33:37;;;;;;;;;25.25;24.50;;;;;20.75;40.36;102028.19;4992963;28;45554;-87
2022/04/29 11:36:11;;;;;;;;;29.00;28.00;;;;;20.78;39.77;102030.63;4994031;28;45516;-91